Whitneyville, Connecticut
Current Conditions -  °F | °C
As of 7:53 PM on Monday 20 Oct 2014 (Local Time) from KHVN Reporting Station
Broken Clouds Broken Clouds  
Wind Chill: 60°   Ceiling: 25000
Heat Index: 60°   Visibility: 10mi
Dew Point: 42°   Wind: 12mph
Humidity: 51%   Direction: 210°SSW
Pressure: 29.99"   Gusts: 18mph
Location:  41.3475°N, 72.9054°W
Report Text: KHVN 202353Z 21010G16KT 10SM FEW060 SCT140 BKN250 16/06 A2999 RMK AO2 SLP153 T01560056 10161 20139 58002
Loading
Personal Weather Stations






























Interactive Weather Map
Tropical Storm Tracking
New forecast layout! Learn more

10-Day Weather Forecast

Advertisements
Track Severe Weather on mobile